Time;durP1;ratioP1;P1;durP2;ratioP2;P2;SDS_P1;SDS_P2;PMS_P1;PMS_P2;Temp;Humidity;BMP_temperature;BMP_pressure;BME280_temperature;BME280_humidity;BME280_pressure;Samples;Min_cycle;Max_cycle;Signal;HPM_P1;HPM_P2
2024/03/01 00:01:29;;;;;;;56.80;29.80;;;;;;;-3.15;100.00;141510.70;106693;1270;25377;-68
2024/03/01 00:04:15;;;;;;;47.60;24.30;;;;;;;-3.30;100.00;141476.23;106695;1274;25370;-68
2024/03/01 00:07:01;;;;;;;60.90;26.70;;;;;;;-3.38;100.00;141455.66;106779;1264;22760;-68
2024/03/01 00:09:47;;;;;;;48.40;25.30;;;;;;;-3.41;100.00;141448.97;106659;1271;25373;-68
2024/03/01 00:12:34;;;;;;;48.70;26.30;;;;;;;-3.44;100.00;141440.80;106689;1268;25328;-68
2024/03/01 00:15:20;;;;;;;57.30;26.40;;;;;;;-3.50;100.00;141427.17;106745;1270;25419;-71
2024/03/01 00:18:05;;;;;;;43.30;23.50;;;;;;;-3.55;100.00;141414.75;106782;1268;25485;-68
2024/03/01 00:20:51;;;;;;;50.60;24.20;;;;;;;-3.57;100.00;141410.05;106738;1259;25428;-68
2024/03/01 00:23:36;;;;;;;50.10;23.70;;;;;;;-3.59;100.00;141403.63;106761;1262;25416;-66
2024/03/01 00:26:22;;;;;;;49.70;23.90;;;;;;;-3.57;100.00;141408.58;106635;1271;25519;-68
2024/03/01 00:29:07;;;;;;;48.40;24.60;;;;;;;-3.54;100.00;141416.00;106792;1260;22532;-68
2024/03/01 00:31:53;;;;;;;44.90;23.20;;;;;;;-3.55;100.00;141413.78;106785;1272;23288;-67
2024/03/01 00:34:39;;;;;;;45.50;23.80;;;;;;;-3.58;100.00;141407.83;106790;1271;25325;-65
2024/03/01 00:37:25;;;;;;;53.30;25.30;;;;;;;-3.63;100.00;141394.45;106752;1268;25348;-70
2024/03/01 00:40:11;;;;;;;53.60;27.10;;;;;;;-3.69;100.00;141379.09;106739;1270;22536;-63
2024/03/01 00:42:56;;;;;;;61.20;27.60;;;;;;;-3.74;100.00;141369.42;106692;1271;25404;-71
2024/03/01 00:45:43;;;;;;;50.70;27.80;;;;;;;-3.74;100.00;141368.44;106756;1271;25377;-64
2024/03/01 00:48:30;;;;;;;62.30;29.00;;;;;;;-3.74;100.00;141369.69;106750;1271;25486;-66
2024/03/01 00:51:16;;;;;;;56.60;26.90;;;;;;;-3.73;100.00;141371.17;106808;1271;25504;-64
2024/03/01 00:54:02;;;;;;;49.30;27.60;;;;;;;-3.74;100.00;141368.94;106833;1256;25287;-65
2024/03/01 00:56:48;;;;;;;54.10;31.10;;;;;;;-3.75;100.00;141365.72;106806;1256;25328;-68
2024/03/01 00:59:34;;;;;;;59.70;32.00;;;;;;;-3.77;100.00;141361.50;106814;1268;23383;-66
2024/03/01 01:02:20;;;;;;;60.40;29.60;;;;;;;-3.80;100.00;141355.31;106758;1271;25364;-66
2024/03/01 01:05:25;;;;;;;56.90;29.20;;;;;;;-3.83;100.00;141347.63;106740;1270;25497;-66
2024/03/01 01:08:11;;;;;;;54.10;26.60;;;;;;;-3.85;100.00;141342.70;106801;1265;22548;-67
2024/03/01 01:10:56;;;;;;;61.10;28.20;;;;;;;-3.86;100.00;141338.22;106806;1271;25409;-68
2024/03/01 01:13:42;;;;;;;65.60;31.60;;;;;;;-3.88;100.00;141335.48;106775;1268;25376;-64
2024/03/01 01:16:27;;;;;;;67.30;30.70;;;;;;;-3.90;100.00;141328.53;106716;1271;25348;-64
2024/03/01 01:19:13;;;;;;;55.60;30.40;;;;;;;-3.93;100.00;141322.84;106808;1271;25526;-66
2024/03/01 01:21:59;;;;;;;54.10;27.40;;;;;;;-3.96;100.00;141314.20;106707;1272;25528;-65
2024/03/01 01:24:45;;;;;;;59.00;30.40;;;;;;;-3.98;100.00;141309.48;106690;1272;25364;-65
2024/03/01 01:27:31;;;;;;;72.70;31.40;;;;;;;-3.99;100.00;141307.28;106623;1271;25410;-65
2024/03/01 01:30:17;;;;;;;56.60;31.30;;;;;;;-3.97;100.00;141312.70;106615;1268;25361;-67
2024/03/01 01:33:03;;;;;;;57.90;29.20;;;;;;;-3.97;100.00;141311.72;106628;1271;25924;-67
2024/03/01 01:35:50;;;;;;;72.00;36.20;;;;;;;-4.00;100.00;141305.53;106632;1272;25498;-66
2024/03/01 01:38:35;;;;;;;65.60;34.30;;;;;;;-3.99;100.00;141307.75;106596;1271;25406;-68
2024/03/01 01:41:21;;;;;;;67.40;35.70;;;;;;;-3.98;100.00;141311.20;106629;1271;25450;-68
2024/03/01 01:44:06;;;;;;;79.30;38.40;;;;;;;-4.00;100.00;141305.78;106627;1271;25357;-66
2024/03/01 01:46:52;;;;;;;71.50;40.10;;;;;;;-4.06;100.00;141289.67;106639;1269;25718;-66
2024/03/01 01:49:38;;;;;;;73.30;37.60;;;;;;;-4.13;100.00;141274.33;106634;1269;25536;-66
2024/03/01 01:52:26;;;;;;;66.90;36.60;;;;;;;-4.18;100.00;141261.69;106663;1261;25373;-66
2024/03/01 01:55:12;;;;;;;55.60;33.00;;;;;;;-4.23;100.00;141249.06;106706;1271;25381;-67
2024/03/01 01:57:59;;;;;;;60.80;33.40;;;;;;;-4.28;100.00;141236.94;106711;1271;25361;-66
2024/03/01 02:00:47;;;;;;;70.40;35.90;;;;;;;-4.30;100.00;141233.22;106532;1271;25526;-66
2024/03/01 02:03:38;;;;;;;69.80;36.60;;;;;;;-4.31;100.00;141229.02;106746;1271;25345;-66
2024/03/01 02:06:23;;;;;;;71.60;34.50;;;;;;;-4.31;100.00;141229.50;106815;1268;25524;-68
2024/03/01 02:09:17;;;;;;;65.90;32.90;;;;;;;-4.30;100.00;141232.47;106725;1271;25348;-68
2024/03/01 02:12:03;;;;;;;69.70;35.90;;;;;;;-4.30;100.00;141231.73;106591;1278;25363;-69
2024/03/01 02:14:49;;;;;;;72.20;36.90;;;;;;;-4.32;100.00;141227.03;106639;1268;25348;-68
2024/03/01 02:17:35;;;;;;;60.10;31.40;;;;;;;-4.35;100.00;141219.38;106611;1266;25809;-68
2024/03/01 02:20:22;;;;;;;59.70;31.10;;;;;;;-4.40;100.00;141208.94;106641;1268;25402;-65
2024/03/01 02:23:16;;;;;;;59.50;32.30;;;;;;;-4.42;100.00;141204.47;106631;1268;25421;-68
2024/03/01 02:26:02;;;;;;;60.10;31.20;;;;;;;-4.43;100.00;141200.53;106621;1268;25370;-68
2024/03/01 02:28:48;;;;;;;74.70;34.90;;;;;;;-4.46;100.00;141193.09;106638;1269;25362;-69
2024/03/01 02:31:34;;;;;;;67.70;33.60;;;;;;;-4.49;100.00;141187.41;106635;1271;25517;-69
2024/03/01 02:34:19;;;;;;;62.40;32.20;;;;;;;-4.52;100.00;141179.00;106673;1278;25502;-69
2024/03/01 02:37:05;;;;;;;67.40;33.10;;;;;;;-4.56;100.00;141169.34;106650;1271;25440;-67
2024/03/01 02:39:50;;;;;;;60.60;30.40;;;;;;;-4.60;100.00;141160.19;106638;1272;25338;-67
2024/03/01 02:42:36;;;;;;;65.40;31.60;;;;;;;-4.60;100.00;141159.94;106640;1269;25403;-68
2024/03/01 02:45:22;;;;;;;62.80;29.90;;;;;;;-4.59;100.00;141162.41;106643;1269;25498;-67
2024/03/01 02:48:08;;;;;;;62.40;31.30;;;;;;;-4.58;100.00;141164.63;106686;1271;25429;-66
2024/03/01 02:50:54;;;;;;;60.80;31.30;;;;;;;-4.59;100.00;141162.16;106621;1268;25348;-68
2024/03/01 02:53:39;;;;;;;57.90;29.30;;;;;;;-4.61;100.00;141159.44;106648;1268;25407;-68
2024/03/01 02:56:25;;;;;;;49.20;26.70;;;;;;;-4.62;100.00;141155.22;106623;1268;25366;-70
2024/03/01 02:59:11;;;;;;;58.40;31.50;;;;;;;-4.62;100.00;141155.47;106693;1268;25324;-68
2024/03/01 03:01:58;;;;;;;54.40;29.60;;;;;;;-4.62;100.00;141156.22;106654;1268;25373;-68
2024/03/01 03:04:44;;;;;;;55.50;29.30;;;;;;;-4.62;100.00;141155.97;106644;1268;25365;-67
2024/03/01 03:07:29;;;;;;;48.90;27.20;;;;;;;-4.63;100.00;141153.25;106620;1271;25406;-67
2024/03/01 03:10:16;;;;;;;51.90;27.10;;;;;;;-4.63;100.00;141153.48;106609;1271;24273;-69
2024/03/01 03:13:03;;;;;;;55.50;27.20;;;;;;;-4.60;100.00;141160.67;106625;1270;25492;-66
2024/03/01 03:15:49;;;;;;;55.80;29.50;;;;;;;-4.58;100.00;141165.13;106662;1276;25348;-67
2024/03/01 03:18:35;;;;;;;57.70;29.70;;;;;;;-4.54;100.00;141174.78;106787;1271;25844;-69
2024/03/01 03:21:20;;;;;;;54.10;27.70;;;;;;;-4.54;100.00;141175.53;106744;1271;25349;-67
2024/03/01 03:24:07;;;;;;;52.40;27.20;;;;;;;-4.59;100.00;141162.17;106666;1271;25370;-68
2024/03/01 03:26:52;;;;;;;58.20;28.50;;;;;;;-4.63;100.00;141153.48;106739;1273;25345;-64
2024/03/01 03:29:38;;;;;;;57.80;30.20;;;;;;;-4.61;100.00;141158.69;106728;1267;25426;-64
2024/03/01 03:32:23;;;;;;;60.50;29.00;;;;;;;-4.58;100.00;141164.38;106780;1269;23225;-65
2024/03/01 03:35:09;;;;;;;61.40;30.60;;;;;;;-4.55;100.00;141171.56;106766;1272;25338;-67
2024/03/01 03:37:55;;;;;;;58.00;30.20;;;;;;;-4.52;100.00;141178.75;106709;1271;25366;-68
2024/03/01 03:40:40;;;;;;;58.20;29.00;;;;;;;-4.50;100.00;141184.67;106868;1271;25458;-65
2024/03/01 03:43:27;;;;;;;51.80;26.20;;;;;;;-4.47;100.00;141191.38;106698;1271;25364;-66
2024/03/01 03:46:12;;;;;;;52.40;26.90;;;;;;;-4.46;100.00;141194.33;106717;1274;25338;-63
2024/03/01 03:48:57;;;;;;;63.80;31.00;;;;;;;-4.44;100.00;141198.31;106661;1280;25374;-67
2024/03/01 03:51:43;;;;;;;57.10;29.50;;;;;;;-4.42;100.00;141202.52;106702;1266;25374;-67
2024/03/01 03:54:28;;;;;;;56.50;28.40;;;;;;;-4.41;100.00;141205.47;106702;1272;25463;-64
2024/03/01 03:57:14;;;;;;;46.50;24.40;;;;;;;-4.41;100.00;141205.47;106682;1271;25523;-64
2024/03/01 04:00:02;;;;;;;54.90;30.00;;;;;;;-4.43;100.00;141201.27;106814;1271;25390;-64
2024/03/01 04:02:54;;;;;;;49.10;26.50;;;;;;;-4.40;100.00;141209.67;106796;1269;25443;-64
2024/03/01 04:05:40;;;;;;;59.60;28.90;;;;;;;-4.33;100.00;141225.30;106784;1260;25357;-67
2024/03/01 04:08:26;;;;;;;55.50;31.20;;;;;;;-4.28;100.00;141237.67;106830;1268;25498;-68
2024/03/01 04:11:11;;;;;;;58.70;33.60;;;;;;;-4.23;100.00;141249.80;106708;1276;25337;-66
2024/03/01 04:13:57;;;;;;;65.70;30.20;;;;;;;-4.23;100.00;141250.03;106751;1260;25409;-69
2024/03/01 04:16:43;;;;;;;60.40;31.40;;;;;;;-4.26;100.00;141242.39;106811;1275;25368;-69
2024/03/01 04:19:29;;;;;;;61.90;30.70;;;;;;;-4.31;100.00;141229.00;106832;1268;25555;-67
2024/03/01 04:22:15;;;;;;;51.00;28.60;;;;;;;-4.37;100.00;141216.38;106774;1278;25497;-68
2024/03/01 04:25:00;;;;;;;62.40;32.60;;;;;;;-4.40;100.00;141208.20;106619;1271;25633;-69
2024/03/01 04:27:46;;;;;;;48.80;26.10;;;;;;;-4.46;100.00;141194.34;106637;1277;25373;-66
2024/03/01 04:30:32;;;;;;;43.50;24.20;;;;;;;-4.48;100.00;141188.89;106624;1269;25373;-71
2024/03/01 04:33:18;;;;;;;43.00;20.60;;;;;;;-4.48;100.00;141188.88;106627;1271;25571;-67
2024/03/01 04:36:04;;;;;;;47.10;25.20;;;;;;;-4.47;100.00;141192.36;106629;1272;25345;-67
2024/03/01 04:38:50;;;;;;;45.50;25.80;;;;;;;-4.43;100.00;141200.53;106638;1278;25355;-68
2024/03/01 04:41:36;;;;;;;45.40;25.00;;;;;;;-4.43;100.00;141200.52;106711;1272;25419;-68
2024/03/01 04:44:22;;;;;;;43.40;22.80;;;;;;;-4.45;100.00;141197.30;106718;1271;25373;-66
2024/03/01 04:47:07;;;;;;;42.10;21.40;;;;;;;-4.45;100.00;141195.58;106804;1268;25440;-67
2024/03/01 04:49:53;;;;;;;36.60;18.90;;;;;;;-4.40;100.00;141208.94;106926;1262;25428;-68
2024/03/01 04:52:39;;;;;;;35.40;19.40;;;;;;;-4.31;100.00;141229.25;106806;1271;25393;-66
2024/03/01 04:55:25;;;;;;;44.80;19.70;;;;;;;-4.24;100.00;141247.33;106712;1272;25394;-68
2024/03/01 04:58:10;;;;;;;35.00;14.40;;;;;;;-4.20;100.00;141257.97;106787;1273;24249;-68
2024/03/01 05:00:57;;;;;;;26.90;14.10;;;;;;;-4.13;100.00;141274.83;106829;1269;22781;-68
2024/03/01 05:03:46;;;;;;;37.00;15.60;;;;;;;-4.01;100.00;141302.56;106729;1256;25341;-66
2024/03/01 05:06:31;;;;;;;35.40;17.30;;;;;;;-3.91;100.00;141327.58;106984;1259;24213;-67
2024/03/01 05:09:18;;;;;;;44.40;22.00;;;;;;;-3.83;100.00;141346.41;106759;1269;22605;-69
2024/03/01 05:12:05;;;;;;;34.70;19.50;;;;;;;-3.79;100.00;141356.55;106628;1274;23894;-67
2024/03/01 05:14:50;;;;;;;40.60;19.10;;;;;;;-3.75;100.00;141365.72;106421;1262;25338;-65
2024/03/01 05:17:40;;;;;;;51.40;25.50;;;;;;;-3.74;99.67;141368.69;106707;1258;25412;-68
2024/03/01 05:20:26;;;;;;;53.70;25.80;;;;;;;-3.73;99.32;141370.91;106698;1259;25338;-68
2024/03/01 05:23:11;;;;;;;44.20;25.00;;;;;;;-3.73;99.07;141370.17;106890;1272;25373;-67
2024/03/01 05:25:57;;;;;;;48.00;21.80;;;;;;;-3.72;98.24;141373.88;106758;1271;25437;-63
2024/03/01 05:28:43;;;;;;;44.60;23.30;;;;;;;-3.70;97.75;141379.09;106802;1271;25521;-65
2024/03/01 05:31:50;;;;;;;58.20;25.70;;;;;;;-3.65;97.80;141389.00;106488;1271;25400;-67
2024/03/01 05:34:36;;;;;;;41.30;22.40;;;;;;;-3.68;97.65;141382.30;106446;1271;25377;-65
2024/03/01 05:37:21;;;;;;;44.30;22.50;;;;;;;-3.68;97.21;141382.83;106715;1271;25337;-67
2024/03/01 05:40:12;;;;;;;51.60;27.30;;;;;;;-3.67;96.96;141383.55;106652;1271;25498;-73
2024/03/01 05:42:59;;;;;;;55.50;29.50;;;;;;;-3.72;97.11;141374.14;106627;1266;26640;-67
2024/03/01 05:45:44;;;;;;;69.20;33.10;;;;;;;-3.77;97.34;141362.48;106655;1276;25531;-71
2024/03/01 05:48:30;;;;;;;64.00;34.50;;;;;;;-3.82;98.12;141349.61;106642;1279;25813;-77
2024/03/01 05:51:16;;;;;;;74.70;34.50;;;;;;;-3.82;98.40;141349.59;106647;1269;24251;-71
2024/03/01 05:54:03;;;;;;;69.40;35.00;;;;;;;-3.87;98.72;141335.72;106702;1273;25400;-72
2024/03/01 05:56:49;;;;;;;67.90;34.20;;;;;;;-3.93;98.73;141321.61;106727;1279;25493;-72
2024/03/01 05:59:34;;;;;;;61.00;30.80;;;;;;;-3.98;99.34;141311.47;106665;1268;25427;-70
2024/03/01 06:02:22;;;;;;;73.20;35.10;;;;;;;-4.01;99.90;141301.31;106644;1280;25397;-72
2024/03/01 06:05:08;;;;;;;68.70;37.30;;;;;;;-4.02;99.52;141300.83;106662;1272;25428;-70
2024/03/01 06:07:53;;;;;;;72.10;40.00;;;;;;;-4.03;99.69;141297.34;106645;1277;25382;-73
2024/03/01 06:10:39;;;;;;;84.40;43.40;;;;;;;-4.04;99.94;141294.39;106460;1272;25348;-70
2024/03/01 06:13:25;;;;;;;92.30;44.00;;;;;;;-4.06;99.99;141291.16;106652;1271;25393;-66
2024/03/01 06:16:11;;;;;;;73.60;37.30;;;;;;;-4.06;99.84;141290.42;106636;1279;25486;-71
2024/03/01 06:18:57;;;;;;;77.90;42.90;;;;;;;-4.05;99.95;141292.66;106631;1278;25425;-75
2024/03/01 06:21:46;;;;;;;64.30;35.80;;;;;;;-4.01;99.63;141302.55;106625;1278;25338;-70
2024/03/01 06:24:31;;;;;;;61.50;34.90;;;;;;;-4.00;98.03;141304.03;106651;1272;25362;-72
2024/03/01 06:27:17;;;;;;;68.00;36.50;;;;;;;-4.00;98.15;141304.53;106630;1279;25545;-70
2024/03/01 06:30:03;;;;;;;72.60;36.70;;;;;;;-3.96;98.54;141315.92;106673;1276;25444;-67
2024/03/01 06:32:48;;;;;;;69.50;37.40;;;;;;;-3.87;97.88;141336.02;106652;1272;25582;-69
2024/03/01 06:35:34;;;;;;;78.20;37.90;;;;;;;-3.80;97.27;141354.33;106639;1272;25358;-70
2024/03/01 06:38:20;;;;;;;70.90;36.60;;;;;;;-3.73;96.89;141370.91;106674;1270;25529;-68
2024/03/01 06:41:05;;;;;;;80.60;38.60;;;;;;;-3.64;96.01;141390.72;106642;1279;25558;-73
2024/03/01 06:43:51;;;;;;;85.80;40.00;;;;;;;-3.56;94.77;141412.30;106651;1275;22688;-67
2024/03/01 06:46:37;;;;;;;70.60;36.40;;;;;;;-3.43;94.36;141442.28;106708;1279;25396;-68
2024/03/01 06:49:23;;;;;;;74.20;39.60;;;;;;;-3.32;93.06;141469.55;106658;1275;25363;-73
2024/03/01 06:52:10;;;;;;;75.80;38.20;;;;;;;-3.20;92.95;141499.03;106671;1279;25485;-67
2024/03/01 06:54:56;;;;;;;90.10;42.60;;;;;;;-3.01;92.19;141544.41;106672;1277;25486;-77
2024/03/01 06:57:42;;;;;;;74.40;38.60;;;;;;;-2.90;91.24;141572.66;106627;1271;25339;-73
2024/03/01 07:00:28;;;;;;;64.20;34.40;;;;;;;-2.75;89.88;141607.36;106637;1279;25554;-76
2024/03/01 07:03:14;;;;;;;60.60;34.10;;;;;;;-2.44;87.54;141682.78;106654;1278;25333;-75
2024/03/01 07:06:00;;;;;;;63.50;34.50;;;;;;;-2.03;85.15;141782.48;106683;1267;25360;-73
2024/03/01 07:08:45;;;;;;;62.40;35.00;;;;;;;-1.88;82.59;141818.47;106648;1278;25348;-74
2024/03/01 07:11:31;;;;;;;65.70;33.70;;;;;;;-1.76;80.69;141848.75;106667;1279;25559;-76
2024/03/01 07:14:17;;;;;;;60.80;35.80;;;;;;;-1.68;80.33;141867.88;106680;1271;25498;-73
2024/03/01 07:17:03;;;;;;;62.90;35.20;;;;;;;-1.46;78.93;141921.22;106660;1269;26628;-70
2024/03/01 07:19:53;;;;;;;60.70;34.70;;;;;;;-1.10;77.26;142008.13;106653;1279;25348;-73
2024/03/01 07:22:39;;;;;;;60.30;34.80;;;;;;;-0.82;74.46;142076.67;106642;1271;25447;-71
2024/03/01 07:25:25;;;;;;;57.40;32.80;;;;;;;-0.68;73.01;142110.97;106642;1271;25498;-71
2024/03/01 07:28:10;;;;;;;69.10;36.10;;;;;;;-0.61;72.48;142125.88;106657;1271;25396;-68
2024/03/01 07:30:56;;;;;;;68.90;34.90;;;;;;;-0.81;73.01;142076.70;106657;1262;25379;-74
2024/03/01 07:33:42;;;;;;;54.80;32.90;;;;;;;-0.97;72.28;142040.42;106641;1263;25809;-74
2024/03/01 07:36:28;;;;;;;65.70;32.50;;;;;;;-1.00;72.80;142032.72;106648;1271;25495;-73
2024/03/01 07:39:14;;;;;;;60.30;32.50;;;;;;;-0.84;72.76;142070.72;106656;1271;25346;-68
2024/03/01 07:41:59;;;;;;;62.80;33.00;;;;;;;-0.62;70.96;142123.66;106666;1271;25363;-70
2024/03/01 07:44:45;;;;;;;67.00;34.00;;;;;;;-0.58;69.61;142134.80;106648;1264;25327;-74
2024/03/01 07:47:33;;;;;;;68.80;37.00;;;;;;;-0.52;68.50;142147.73;106838;1271;25445;-67
2024/03/01 07:50:20;;;;;;;58.70;32.40;;;;;;;-0.36;67.80;142188.22;106805;1273;25348;-67
2024/03/01 07:53:06;;;;;;;65.80;32.70;;;;;;;-0.41;66.32;142174.83;106655;1263;25362;-69
2024/03/01 07:55:52;;;;;;;55.80;31.40;;;;;;;-0.37;66.14;142185.50;106672;1270;25537;-70
2024/03/01 07:58:38;;;;;;;52.00;32.00;;;;;;;-0.32;65.45;142196.69;106995;1267;25348;-68
2024/03/01 08:01:25;;;;;;;57.30;31.50;;;;;;;-0.04;64.91;142264.80;107276;1262;25361;-68
2024/03/01 08:04:11;;;;;;;62.20;31.20;;;;;;;0.30;63.04;142348.09;107228;1264;22530;-67
2024/03/01 08:06:57;;;;;;;58.30;33.70;;;;;;;0.45;62.26;142385.38;107049;1276;25798;-69
2024/03/01 08:09:45;;;;;;;75.60;31.40;;;;;;;0.68;61.72;142439.13;106756;1265;25246;-66
2024/03/01 08:12:30;;;;;;;61.10;30.70;;;;;;;0.54;61.49;142406.53;106803;1271;25522;-70
2024/03/01 08:15:25;;;;;;;51.20;27.80;;;;;;;0.24;62.06;142332.42;106810;1263;22530;-71
2024/03/01 08:18:21;;;;;;;56.10;28.00;;;;;;;0.23;61.89;142330.67;107007;1262;25440;-71
2024/03/01 08:21:11;;;;;;;52.30;27.50;;;;;;;0.37;60.91;142363.50;107263;1269;25357;-67
2024/03/01 08:24:01;;;;;;;51.10;26.30;;;;;;;0.56;60.26;142411.25;106981;1271;22805;-69
2024/03/01 08:26:47;;;;;;;46.20;26.30;;;;;;;0.60;59.41;142420.95;106861;1259;25642;-68
2024/03/01 08:29:36;;;;;;;54.00;28.30;;;;;;;0.84;59.73;142478.42;106883;1270;25400;-69
2024/03/01 08:32:51;;;;;;;48.90;27.60;;;;;;;1.59;58.35;142661.33;107044;1264;25415;-67
2024/03/01 08:35:41;;;;;;;56.10;28.00;;;;;;;2.49;54.53;142879.25;106266;1278;25337;-69
2024/03/01 08:38:39;;;;;;;40.30;23.80;;;;;;;2.72;52.32;142936.55;106503;1272;25457;-74
2024/03/01 08:41:28;;;;;;;40.70;23.40;;;;;;;2.76;51.02;142947.78;106406;1273;25383;-70
2024/03/01 08:44:42;;;;;;;41.60;24.30;;;;;;;2.98;50.78;142999.84;106358;1276;25397;-68
2024/03/01 08:47:38;;;;;;;38.10;21.90;;;;;;;3.11;49.51;143031.27;106294;1270;25347;-68
2024/03/01 08:50:41;;;;;;;35.40;21.40;;;;;;;3.66;48.84;143164.91;106286;1276;25330;-69
2024/03/01 08:53:54;;;;;;;37.90;18.00;;;;;;;3.61;47.13;143154.19;106690;1287;25337;-70
2024/03/01 08:56:40;;;;;;;34.10;16.80;;;;;;;3.29;47.02;143074.14;106175;1276;25503;-72
2024/03/01 08:59:58;;;;;;;35.80;17.70;;;;;;;2.81;47.28;142957.73;106614;1280;25359;-68
2024/03/01 09:02:48;;;;;;;42.10;19.00;;;;;;;2.49;47.90;142878.73;105648;1280;25354;-71
2024/03/01 09:05:40;;;;;;;29.50;16.70;;;;;;;2.43;47.99;142865.28;105840;1280;22572;-70
2024/03/01 09:08:34;;;;;;;36.10;17.80;;;;;;;2.22;47.56;142815.97;105680;1280;25498;-66
2024/03/01 09:11:20;;;;;;;32.90;17.80;;;;;;;2.08;48.11;142780.59;105738;1273;27540;-71
2024/03/01 09:14:25;;;;;;;35.00;18.00;;;;;;;2.23;48.26;142816.45;106138;1276;23306;-66
2024/03/01 09:17:13;;;;;;;32.20;17.30;;;;;;;2.03;47.78;142768.41;106040;1273;25417;-69
2024/03/01 09:19:59;;;;;;;31.90;18.30;;;;;;;1.71;48.44;142689.72;106508;1280;25375;-72
2024/03/01 09:22:45;;;;;;;33.50;17.20;;;;;;;1.41;49.46;142617.75;106181;1283;25438;-73
2024/03/01 09:25:51;;;;;;;33.60;17.90;;;;;;;1.35;49.94;142603.83;106335;1273;25377;-66
2024/03/01 09:28:38;;;;;;;35.10;18.60;;;;;;;1.66;49.76;142677.75;106119;1270;25252;-72
2024/03/01 09:31:24;;;;;;;33.20;18.60;;;;;;;1.77;48.92;142705.16;106988;1264;25324;-71
2024/03/01 09:34:12;;;;;;;41.50;19.20;;;;;;;1.67;48.80;142679.98;106471;1274;22536;-66
2024/03/01 09:36:58;;;;;;;36.70;18.80;;;;;;;1.63;48.93;142671.52;106281;1263;22542;-70
2024/03/01 09:39:45;;;;;;;48.90;19.30;;;;;;;1.62;48.76;142669.28;106773;1264;186117;-65
2024/03/01 09:43:00;;;;;;;35.00;17.20;;;;;;;1.58;48.69;142657.33;106876;1267;25375;-67
2024/03/01 09:46:03;;;;;;;33.90;17.30;;;;;;;1.48;48.29;142635.94;106842;1263;25366;-72
2024/03/01 09:48:55;;;;;;;35.60;18.10;;;;;;;1.39;48.61;142612.78;106873;1261;25386;-70
2024/03/01 09:52:06;;;;;;;36.90;18.40;;;;;;;1.27;48.48;142584.66;106697;1260;22539;-70
2024/03/01 09:55:05;;;;;;;36.90;17.50;;;;;;;1.21;48.60;142569.48;106447;1270;25361;-70
2024/03/01 09:58:02;;;;;;;39.70;16.90;;;;;;;1.16;48.63;142556.28;106305;1275;23593;-65
2024/03/01 10:01:05;;;;;;;33.10;16.70;;;;;;;1.09;48.31;142540.11;105978;1271;24046;-70
2024/03/01 10:03:54;;;;;;;;;;;;;;;0.92;48.38;142498.58;106040;1278;25367;-66
2024/03/01 10:06:59;;;;;;;33.80;17.40;;;;;;;0.78;48.62;142465.22;106447;1270;25369;-68
2024/03/01 10:10:00;;;;;;;43.30;17.40;;;;;;;0.76;48.60;142460.02;106263;1274;24323;-67
2024/03/01 10:13:06;;;;;;;28.70;15.50;;;;;;;0.77;48.26;142461.23;106662;1270;24271;-67
2024/03/01 10:16:08;;;;;;;32.20;16.80;;;;;;;0.85;48.52;142480.17;106245;1267;24256;-67
2024/03/01 10:19:43;;;;;;;27.00;16.00;;;;;;;0.97;48.21;142510.02;106478;1264;24378;-69
2024/03/01 10:23:16;;;;;;;32.60;16.20;;;;;;;0.87;47.54;142487.14;105726;1277;25357;-70
2024/03/01 10:26:23;;;;;;;38.60;16.20;;;;;;;0.80;46.76;142469.94;105439;1286;25510;-68
2024/03/01 10:29:36;;;;;;;30.50;14.90;;;;;;;0.86;46.44;142484.66;105267;1286;25434;-67
2024/03/01 10:33:00;;;;;;;31.40;18.40;;;;;;;0.85;45.58;142482.39;105524;1280;24402;-69
2024/03/01 10:36:18;;;;;;;35.00;16.40;;;;;;;0.93;46.21;142500.56;106161;1274;25335;-67
2024/03/01 10:39:46;;;;;;;37.20;16.30;;;;;;;1.05;45.97;142530.66;105949;1292;25487;-71
2024/03/01 10:42:36;;;;;;;26.80;12.70;;;;;;;1.13;45.15;142548.84;105635;1286;25376;-73
2024/03/01 10:45:29;;;;;;;24.40;12.80;;;;;;;1.12;44.11;142547.33;105283;1283;25462;-70
2024/03/01 10:48:15;;;;;;;24.70;12.60;;;;;;;1.06;44.19;142532.16;105534;1277;23243;-75
2024/03/01 10:51:07;;;;;;;32.20;12.90;;;;;;;0.95;44.09;142505.78;105709;1276;22623;-67
2024/03/01 10:53:56;;;;;;;21.80;11.50;;;;;;;0.98;43.99;142513.25;105370;1280;25519;-73
2024/03/01 10:56:43;;;;;;;27.40;12.90;;;;;;;0.94;43.81;142504.53;105857;1287;25381;-70
2024/03/01 10:59:47;;;;;;;23.60;12.30;;;;;;;0.94;44.22;142502.55;106130;1274;25386;-67
2024/03/01 11:02:41;;;;;;;22.30;12.20;;;;;;;1.05;43.42;142530.16;106293;1270;25395;-74
2024/03/01 11:05:40;;;;;;;23.40;11.90;;;;;;;1.11;43.62;142545.09;106371;1272;25374;-71
2024/03/01 11:08:42;;;;;;;24.70;12.10;;;;;;;1.15;43.77;142554.55;106461;1267;25338;-67
2024/03/01 11:11:40;;;;;;;26.10;12.70;;;;;;;1.13;43.92;142548.09;106602;1264;25380;-72
2024/03/01 11:14:32;;;;;;;25.30;12.90;;;;;;;1.09;43.69;142539.63;106456;1268;25350;-67
2024/03/01 11:17:25;;;;;;;24.30;11.90;;;;;;;1.12;44.19;142546.34;106484;1270;22533;-70
2024/03/01 11:20:35;;;;;;;22.50;12.60;;;;;;;1.20;44.24;142565.75;106953;1263;24241;-69
2024/03/01 11:23:28;;;;;;;29.50;11.70;;;;;;;1.22;44.17;142571.22;106695;1264;25354;-67
2024/03/01 11:26:16;;;;;;;22.50;10.60;;;;;;;1.15;44.00;142554.55;106614;1261;25543;-73
2024/03/01 11:29:05;;;;;;;27.00;12.60;;;;;;;1.08;44.18;142537.13;106719;1268;26110;-71
2024/03/01 11:31:56;;;;;;;29.80;12.70;;;;;;;1.04;43.72;142528.17;106780;1264;25437;-66
2024/03/01 11:35:11;;;;;;;27.80;12.00;;;;;;;1.03;43.62;142525.42;107083;1265;25415;-73
2024/03/01 11:38:06;;;;;;;30.90;12.90;;;;;;;1.08;43.91;142537.66;106707;1264;25428;-76
2024/03/01 11:41:15;;;;;;;26.20;13.40;;;;;;;1.01;44.08;142520.47;107181;1266;26498;-72
2024/03/01 11:44:14;;;;;;;;;;;;;;;0.91;44.78;142495.34;107017;1264;25343;-70
2024/03/01 11:47:22;;;;;;;42.10;15.00;;;;;;;0.93;44.65;142500.30;107245;1264;25353;-71
2024/03/01 11:50:14;;;;;;;28.30;14.00;;;;;;;1.03;44.87;142526.17;107118;1264;25347;-66
2024/03/01 11:53:21;;;;;;;32.60;14.10;;;;;;;1.20;45.07;142567.00;107012;1264;24331;-69
2024/03/01 11:56:19;;;;;;;29.20;15.80;;;;;;;1.30;45.44;142590.88;107021;1264;25348;-70
2024/03/01 11:59:16;;;;;;;27.10;14.30;;;;;;;1.36;45.01;142604.83;106591;1261;23231;-70
2024/03/01 12:02:23;;;;;;;26.60;14.20;;;;;;;1.30;45.28;142591.13;106744;1262;25364;-65
2024/03/01 12:05:24;;;;;;;36.00;15.80;;;;;;;1.19;45.18;142562.98;106949;1264;24357;-69
2024/03/01 12:08:33;;;;;;;32.10;15.70;;;;;;;1.22;45.27;142571.97;106948;1264;25418;-67
2024/03/01 12:11:44;;;;;;;25.10;15.50;;;;;;;1.27;45.71;142582.92;107420;1259;22876;-71
2024/03/01 12:14:41;;;;;;;32.40;15.80;;;;;;;1.42;45.82;142619.75;107114;1258;22117;-71
2024/03/01 12:17:51;;;;;;;31.10;15.70;;;;;;;1.55;45.63;142650.14;106875;1264;25344;-71
2024/03/01 12:21:02;;;;;;;33.20;16.00;;;;;;;1.55;45.68;142650.88;106908;1262;26584;-66
2024/03/01 12:24:21;;;;;;;33.10;15.90;;;;;;;1.60;45.47;142662.81;107054;1264;25460;-68
2024/03/01 12:27:36;;;;;;;35.40;16.10;;;;;;;1.64;44.80;142674.28;106825;1279;25358;-72
2024/03/01 12:30:24;;;;;;;26.70;15.10;;;;;;;1.65;44.33;142674.53;106676;1262;25373;-69
2024/03/01 12:33:23;;;;;;;31.90;15.80;;;;;;;1.63;44.38;142670.28;106758;1268;22536;-70
2024/03/01 12:36:30;;;;;;;31.20;17.00;;;;;;;1.57;44.66;142657.34;106951;1260;22647;-69
2024/03/01 12:39:29;;;;;;;30.50;15.60;;;;;;;1.54;44.51;142649.38;106962;1261;22865;-66
2024/03/01 12:42:36;;;;;;;33.80;16.50;;;;;;;1.48;44.64;142635.17;106817;1264;25356;-69
2024/03/01 12:45:28;;;;;;;25.60;14.60;;;;;;;1.48;44.68;142636.44;106828;1262;24293;-67
2024/03/01 12:48:31;;;;;;;27.60;14.80;;;;;;;1.52;44.25;142644.63;106906;1258;25357;-68